sensor_id;sensor_type;location;lat;lon;timestamp;P1;durP1;ratioP1;P2;durP2;ratioP2
11422;SDS011;5768;51.476;7.210;2023-05-07T00:00:32;8.05;;;7.22;;
11422;SDS011;5768;51.476;7.210;2023-05-07T00:05:34;7.40;;;6.80;;
11422;SDS011;5768;51.476;7.210;2023-05-07T00:10:37;8.25;;;7.35;;
11422;SDS011;5768;51.476;7.210;2023-05-07T00:15:43;7.88;;;7.07;;
11422;SDS011;5768;51.476;7.210;2023-05-07T00:20:46;8.10;;;7.32;;
11422;SDS011;5768;51.476;7.210;2023-05-07T00:25:48;8.70;;;7.75;;
11422;SDS011;5768;51.476;7.210;2023-05-07T00:30:52;7.55;;;6.85;;
11422;SDS011;5768;51.476;7.210;2023-05-07T00:35:55;8.40;;;7.55;;
11422;SDS011;5768;51.476;7.210;2023-05-07T00:40:57;8.25;;;7.40;;
11422;SDS011;5768;51.476;7.210;2023-05-07T00:46:01;8.18;;;7.38;;
11422;SDS011;5768;51.476;7.210;2023-05-07T00:51:03;8.65;;;7.72;;
11422;SDS011;5768;51.476;7.210;2023-05-07T00:56:06;9.82;;;8.90;;
11422;SDS011;5768;51.476;7.210;2023-05-07T01:01:10;9.75;;;8.85;;
11422;SDS011;5768;51.476;7.210;2023-05-07T01:06:12;11.88;;;9.73;;
11422;SDS011;5768;51.476;7.210;2023-05-07T01:11:17;10.43;;;9.45;;
11422;SDS011;5768;51.476;7.210;2023-05-07T01:16:21;10.85;;;9.75;;
11422;SDS011;5768;51.476;7.210;2023-05-07T01:21:24;10.60;;;9.70;;
11422;SDS011;5768;51.476;7.210;2023-05-07T01:26:29;11.48;;;10.35;;
11422;SDS011;5768;51.476;7.210;2023-05-07T01:31:32;11.32;;;10.30;;
11422;SDS011;5768;51.476;7.210;2023-05-07T01:36:36;12.07;;;11.05;;
11422;SDS011;5768;51.476;7.210;2023-05-07T01:41:42;12.13;;;11.07;;
11422;SDS011;5768;51.476;7.210;2023-05-07T01:46:45;11.13;;;10.10;;
11422;SDS011;5768;51.476;7.210;2023-05-07T01:51:49;11.38;;;10.27;;
11422;SDS011;5768;51.476;7.210;2023-05-07T01:56:53;11.93;;;10.77;;
11422;SDS011;5768;51.476;7.210;2023-05-07T02:01:57;12.13;;;10.65;;
11422;SDS011;5768;51.476;7.210;2023-05-07T02:06:59;11.32;;;10.32;;
11422;SDS011;5768;51.476;7.210;2023-05-07T02:12:03;11.75;;;10.60;;
11422;SDS011;5768;51.476;7.210;2023-05-07T02:17:06;11.52;;;10.52;;
11422;SDS011;5768;51.476;7.210;2023-05-07T02:22:09;11.95;;;10.85;;
11422;SDS011;5768;51.476;7.210;2023-05-07T02:27:13;11.75;;;10.60;;
11422;SDS011;5768;51.476;7.210;2023-05-07T02:32:15;12.23;;;11.18;;
11422;SDS011;5768;51.476;7.210;2023-05-07T02:37:18;13.70;;;12.52;;
11422;SDS011;5768;51.476;7.210;2023-05-07T02:42:21;13.40;;;12.00;;
11422;SDS011;5768;51.476;7.210;2023-05-07T02:47:24;13.75;;;12.52;;
11422;SDS011;5768;51.476;7.210;2023-05-07T02:52:27;13.77;;;12.60;;
11422;SDS011;5768;51.476;7.210;2023-05-07T02:57:30;13.23;;;12.02;;
11422;SDS011;5768;51.476;7.210;2023-05-07T03:02:32;13.90;;;12.55;;
11422;SDS011;5768;51.476;7.210;2023-05-07T03:07:34;14.25;;;12.85;;
11422;SDS011;5768;51.476;7.210;2023-05-07T03:12:39;14.70;;;13.30;;
11422;SDS011;5768;51.476;7.210;2023-05-07T03:17:41;16.23;;;14.68;;
11422;SDS011;5768;51.476;7.210;2023-05-07T03:22:43;16.10;;;14.68;;
11422;SDS011;5768;51.476;7.210;2023-05-07T03:27:47;16.17;;;14.70;;
11422;SDS011;5768;51.476;7.210;2023-05-07T03:32:49;15.88;;;14.43;;
11422;SDS011;5768;51.476;7.210;2023-05-07T03:37:52;15.70;;;14.30;;
11422;SDS011;5768;51.476;7.210;2023-05-07T03:42:55;16.42;;;15.13;;
11422;SDS011;5768;51.476;7.210;2023-05-07T03:47:57;15.82;;;14.35;;
11422;SDS011;5768;51.476;7.210;2023-05-07T03:52:59;16.90;;;15.40;;
11422;SDS011;5768;51.476;7.210;2023-05-07T03:58:03;18.38;;;16.77;;
11422;SDS011;5768;51.476;7.210;2023-05-07T04:03:06;17.63;;;16.13;;
11422;SDS011;5768;51.476;7.210;2023-05-07T04:08:08;18.60;;;16.88;;
11422;SDS011;5768;51.476;7.210;2023-05-07T04:13:11;18.92;;;17.25;;
11422;SDS011;5768;51.476;7.210;2023-05-07T04:18:14;19.00;;;17.35;;
11422;SDS011;5768;51.476;7.210;2023-05-07T04:23:16;18.55;;;16.85;;
11422;SDS011;5768;51.476;7.210;2023-05-07T04:28:20;18.23;;;16.63;;
11422;SDS011;5768;51.476;7.210;2023-05-07T04:33:22;18.80;;;17.10;;
11422;SDS011;5768;51.476;7.210;2023-05-07T04:38:25;19.25;;;17.45;;
11422;SDS011;5768;51.476;7.210;2023-05-07T04:43:29;18.17;;;16.63;;
11422;SDS011;5768;51.476;7.210;2023-05-07T04:48:31;18.60;;;17.05;;
11422;SDS011;5768;51.476;7.210;2023-05-07T04:53:33;18.35;;;16.67;;
11422;SDS011;5768;51.476;7.210;2023-05-07T04:58:37;17.25;;;15.70;;
11422;SDS011;5768;51.476;7.210;2023-05-07T05:03:39;16.95;;;15.20;;
11422;SDS011;5768;51.476;7.210;2023-05-07T05:08:41;14.25;;;13.15;;
11422;SDS011;5768;51.476;7.210;2023-05-07T05:13:45;13.05;;;11.95;;
11422;SDS011;5768;51.476;7.210;2023-05-07T05:18:49;13.15;;;11.85;;
11422;SDS011;5768;51.476;7.210;2023-05-07T05:23:52;12.10;;;11.10;;
11422;SDS011;5768;51.476;7.210;2023-05-07T05:28:55;10.90;;;9.98;;
11422;SDS011;5768;51.476;7.210;2023-05-07T05:33:57;10.35;;;9.45;;
11422;SDS011;5768;51.476;7.210;2023-05-07T05:39:00;9.45;;;8.75;;
11422;SDS011;5768;51.476;7.210;2023-05-07T05:44:03;9.15;;;8.35;;
11422;SDS011;5768;51.476;7.210;2023-05-07T05:49:06;8.45;;;7.75;;
11422;SDS011;5768;51.476;7.210;2023-05-07T05:54:08;7.78;;;7.18;;
11422;SDS011;5768;51.476;7.210;2023-05-07T05:59:12;6.95;;;6.45;;
11422;SDS011;5768;51.476;7.210;2023-05-07T06:04:14;6.55;;;6.05;;
11422;SDS011;5768;51.476;7.210;2023-05-07T06:09:18;5.72;;;5.25;;
11422;SDS011;5768;51.476;7.210;2023-05-07T06:14:22;5.00;;;4.60;;
11422;SDS011;5768;51.476;7.210;2023-05-07T06:19:24;5.20;;;4.22;;
11422;SDS011;5768;51.476;7.210;2023-05-07T06:24:28;4.40;;;4.00;;
11422;SDS011;5768;51.476;7.210;2023-05-07T06:29:33;4.65;;;3.70;;
11422;SDS011;5768;51.476;7.210;2023-05-07T06:34:35;3.70;;;3.40;;
11422;SDS011;5768;51.476;7.210;2023-05-07T06:39:38;3.85;;;3.38;;
11422;SDS011;5768;51.476;7.210;2023-05-07T06:44:42;4.53;;;3.50;;
11422;SDS011;5768;51.476;7.210;2023-05-07T06:49:44;3.35;;;3.05;;
11422;SDS011;5768;51.476;7.210;2023-05-07T06:54:46;3.15;;;2.85;;
11422;SDS011;5768;51.476;7.210;2023-05-07T06:59:50;3.38;;;3.08;;
11422;SDS011;5768;51.476;7.210;2023-05-07T07:04:53;4.07;;;3.33;;
11422;SDS011;5768;51.476;7.210;2023-05-07T07:09:55;3.58;;;3.13;;
11422;SDS011;5768;51.476;7.210;2023-05-07T07:14:59;3.50;;;3.20;;
11422;SDS011;5768;51.476;7.210;2023-05-07T07:20:01;4.40;;;3.40;;
11422;SDS011;5768;51.476;7.210;2023-05-07T07:25:05;3.78;;;3.38;;
11422;SDS011;5768;51.476;7.210;2023-05-07T07:30:10;3.75;;;3.38;;
11422;SDS011;5768;51.476;7.210;2023-05-07T07:35:12;3.70;;;3.35;;
11422;SDS011;5768;51.476;7.210;2023-05-07T07:40:14;3.90;;;3.50;;
11422;SDS011;5768;51.476;7.210;2023-05-07T07:45:18;4.28;;;3.88;;
11422;SDS011;5768;51.476;7.210;2023-05-07T07:50:21;4.40;;;3.65;;
11422;SDS011;5768;51.476;7.210;2023-05-07T07:55:24;4.65;;;3.60;;
11422;SDS011;5768;51.476;7.210;2023-05-07T08:00:29;3.67;;;3.33;;
11422;SDS011;5768;51.476;7.210;2023-05-07T08:05:31;3.75;;;3.45;;
11422;SDS011;5768;51.476;7.210;2023-05-07T08:10:33;4.35;;;3.30;;
11422;SDS011;5768;51.476;7.210;2023-05-07T08:15:39;4.25;;;3.85;;
11422;SDS011;5768;51.476;7.210;2023-05-07T08:20:41;3.80;;;3.50;;
11422;SDS011;5768;51.476;7.210;2023-05-07T08:25:44;5.20;;;3.40;;
11422;SDS011;5768;51.476;7.210;2023-05-07T08:30:48;3.78;;;3.40;;
11422;SDS011;5768;51.476;7.210;2023-05-07T08:35:50;4.18;;;3.60;;
11422;SDS011;5768;51.476;7.210;2023-05-07T08:40:52;4.03;;;3.72;;
11422;SDS011;5768;51.476;7.210;2023-05-07T08:45:56;3.97;;;3.63;;
11422;SDS011;5768;51.476;7.210;2023-05-07T08:51:02;3.42;;;3.15;;
11422;SDS011;5768;51.476;7.210;2023-05-07T08:56:05;5.57;;;3.47;;
11422;SDS011;5768;51.476;7.210;2023-05-07T09:01:12;4.80;;;3.40;;
11422;SDS011;5768;51.476;7.210;2023-05-07T09:06:16;3.80;;;3.35;;
11422;SDS011;5768;51.476;7.210;2023-05-07T09:11:21;3.97;;;3.30;;
11422;SDS011;5768;51.476;7.210;2023-05-07T09:16:26;3.70;;;3.33;;
11422;SDS011;5768;51.476;7.210;2023-05-07T09:21:29;3.58;;;3.28;;
11422;SDS011;5768;51.476;7.210;2023-05-07T09:26:32;5.43;;;4.20;;
11422;SDS011;5768;51.476;7.210;2023-05-07T09:31:37;5.43;;;4.40;;
11422;SDS011;5768;51.476;7.210;2023-05-07T09:36:40;5.70;;;3.88;;
11422;SDS011;5768;51.476;7.210;2023-05-07T09:41:43;3.85;;;3.53;;
11422;SDS011;5768;51.476;7.210;2023-05-07T09:46:50;3.70;;;3.40;;
11422;SDS011;5768;51.476;7.210;2023-05-07T09:51:56;5.22;;;4.57;;
11422;SDS011;5768;51.476;7.210;2023-05-07T09:57:01;4.60;;;4.20;;
11422;SDS011;5768;51.476;7.210;2023-05-07T10:02:06;4.45;;;4.15;;
11422;SDS011;5768;51.476;7.210;2023-05-07T10:07:13;5.78;;;3.88;;
11422;SDS011;5768;51.476;7.210;2023-05-07T10:12:17;4.20;;;3.80;;
11422;SDS011;5768;51.476;7.210;2023-05-07T10:17:22;4.55;;;4.00;;
11422;SDS011;5768;51.476;7.210;2023-05-07T10:22:25;6.18;;;4.07;;
11422;SDS011;5768;51.476;7.210;2023-05-07T10:27:28;4.55;;;3.40;;
11422;SDS011;5768;51.476;7.210;2023-05-07T10:32:35;3.30;;;3.00;;
11422;SDS011;5768;51.476;7.210;2023-05-07T10:37:43;3.08;;;2.78;;
11422;SDS011;5768;51.476;7.210;2023-05-07T10:42:53;5.22;;;3.75;;
11422;SDS011;5768;51.476;7.210;2023-05-07T10:48:08;6.03;;;3.40;;
11422;SDS011;5768;51.476;7.210;2023-05-07T10:53:23;3.70;;;3.40;;
11422;SDS011;5768;51.476;7.210;2023-05-07T10:58:29;4.57;;;4.05;;
11422;SDS011;5768;51.476;7.210;2023-05-07T11:03:35;5.05;;;4.63;;
11422;SDS011;5768;51.476;7.210;2023-05-07T11:08:52;4.55;;;4.03;;
11422;SDS011;5768;51.476;7.210;2023-05-07T11:13:56;7.15;;;5.07;;
11422;SDS011;5768;51.476;7.210;2023-05-07T11:19:00;4.55;;;3.70;;
11422;SDS011;5768;51.476;7.210;2023-05-07T11:24:02;4.28;;;3.88;;
11422;SDS011;5768;51.476;7.210;2023-05-07T11:29:09;5.10;;;4.10;;
11422;SDS011;5768;51.476;7.210;2023-05-07T11:34:14;4.68;;;3.95;;
11422;SDS011;5768;51.476;7.210;2023-05-07T11:39:23;5.70;;;4.80;;
11422;SDS011;5768;51.476;7.210;2023-05-07T11:44:42;5.53;;;5.03;;
11422;SDS011;5768;51.476;7.210;2023-05-07T11:49:47;7.28;;;5.13;;
11422;SDS011;5768;51.476;7.210;2023-05-07T11:54:52;5.60;;;5.15;;
11422;SDS011;5768;51.476;7.210;2023-05-07T11:59:57;6.63;;;6.00;;
11422;SDS011;5768;51.476;7.210;2023-05-07T12:05:03;6.97;;;6.35;;
11422;SDS011;5768;51.476;7.210;2023-05-07T12:10:06;7.05;;;6.05;;
11422;SDS011;5768;51.476;7.210;2023-05-07T12:15:15;6.22;;;5.72;;
11422;SDS011;5768;51.476;7.210;2023-05-07T12:20:19;7.35;;;6.68;;
11422;SDS011;5768;51.476;7.210;2023-05-07T12:25:22;6.60;;;6.00;;
11422;SDS011;5768;51.476;7.210;2023-05-07T12:30:25;7.07;;;6.38;;
11422;SDS011;5768;51.476;7.210;2023-05-07T12:35:29;7.07;;;5.43;;
11422;SDS011;5768;51.476;7.210;2023-05-07T12:40:35;6.07;;;5.22;;
11422;SDS011;5768;51.476;7.210;2023-05-07T12:45:40;7.03;;;6.40;;
11422;SDS011;5768;51.476;7.210;2023-05-07T12:50:45;6.95;;;6.25;;
11422;SDS011;5768;51.476;7.210;2023-05-07T12:55:51;6.13;;;5.63;;
11422;SDS011;5768;51.476;7.210;2023-05-07T13:00:56;5.88;;;5.30;;
11422;SDS011;5768;51.476;7.210;2023-05-07T13:06:02;6.50;;;5.90;;
11422;SDS011;5768;51.476;7.210;2023-05-07T13:11:07;6.47;;;5.88;;
11422;SDS011;5768;51.476;7.210;2023-05-07T13:16:10;7.22;;;6.55;;
11422;SDS011;5768;51.476;7.210;2023-05-07T13:21:14;7.07;;;6.38;;
11422;SDS011;5768;51.476;7.210;2023-05-07T13:26:16;6.32;;;5.30;;
11422;SDS011;5768;51.476;7.210;2023-05-07T13:31:19;6.47;;;4.55;;
11422;SDS011;5768;51.476;7.210;2023-05-07T13:36:22;5.72;;;5.18;;
11422;SDS011;5768;51.476;7.210;2023-05-07T13:41:25;7.55;;;5.93;;
11422;SDS011;5768;51.476;7.210;2023-05-07T13:46:28;6.25;;;5.60;;
11422;SDS011;5768;51.476;7.210;2023-05-07T13:51:32;9.93;;;6.88;;
11422;SDS011;5768;51.476;7.210;2023-05-07T13:56:34;6.70;;;6.10;;
11422;SDS011;5768;51.476;7.210;2023-05-07T14:01:37;6.72;;;5.88;;
11422;SDS011;5768;51.476;7.210;2023-05-07T14:06:40;8.10;;;5.70;;
11422;SDS011;5768;51.476;7.210;2023-05-07T14:11:43;6.53;;;5.93;;
11422;SDS011;5768;51.476;7.210;2023-05-07T14:16:48;5.78;;;5.25;;
11422;SDS011;5768;51.476;7.210;2023-05-07T14:21:52;6.50;;;5.85;;
11422;SDS011;5768;51.476;7.210;2023-05-07T14:26:54;5.53;;;5.13;;
11422;SDS011;5768;51.476;7.210;2023-05-07T14:31:57;5.20;;;4.70;;
11422;SDS011;5768;51.476;7.210;2023-05-07T14:37:00;5.45;;;4.80;;
11422;SDS011;5768;51.476;7.210;2023-05-07T14:42:03;5.38;;;4.88;;
11422;SDS011;5768;51.476;7.210;2023-05-07T14:47:05;5.45;;;4.95;;
11422;SDS011;5768;51.476;7.210;2023-05-07T14:52:09;5.80;;;5.07;;
11422;SDS011;5768;51.476;7.210;2023-05-07T14:57:13;6.15;;;5.55;;
11422;SDS011;5768;51.476;7.210;2023-05-07T15:02:16;5.90;;;5.30;;
11422;SDS011;5768;51.476;7.210;2023-05-07T15:07:19;7.93;;;6.32;;
11422;SDS011;5768;51.476;7.210;2023-05-07T15:12:22;6.18;;;5.68;;
11422;SDS011;5768;51.476;7.210;2023-05-07T15:17:24;7.45;;;6.68;;
11422;SDS011;5768;51.476;7.210;2023-05-07T15:22:28;6.32;;;5.72;;
11422;SDS011;5768;51.476;7.210;2023-05-07T15:27:33;6.50;;;6.00;;
11422;SDS011;5768;51.476;7.210;2023-05-07T15:32:35;6.68;;;5.40;;
11422;SDS011;5768;51.476;7.210;2023-05-07T15:37:39;6.10;;;5.50;;
11422;SDS011;5768;51.476;7.210;2023-05-07T15:42:42;6.15;;;5.38;;
11422;SDS011;5768;51.476;7.210;2023-05-07T15:47:46;5.22;;;4.55;;
11422;SDS011;5768;51.476;7.210;2023-05-07T15:52:49;4.30;;;3.90;;
11422;SDS011;5768;51.476;7.210;2023-05-07T15:57:52;4.55;;;3.70;;
11422;SDS011;5768;51.476;7.210;2023-05-07T16:02:56;3.80;;;3.50;;
11422;SDS011;5768;51.476;7.210;2023-05-07T16:07:59;2.85;;;2.65;;
11422;SDS011;5768;51.476;7.210;2023-05-07T16:13:03;2.72;;;2.53;;
11422;SDS011;5768;51.476;7.210;2023-05-07T16:18:05;2.90;;;2.63;;
11422;SDS011;5768;51.476;7.210;2023-05-07T16:23:09;2.50;;;2.30;;
11422;SDS011;5768;51.476;7.210;2023-05-07T16:28:12;2.42;;;2.22;;
11422;SDS011;5768;51.476;7.210;2023-05-07T16:33:15;3.08;;;2.78;;
11422;SDS011;5768;51.476;7.210;2023-05-07T16:38:18;3.63;;;3.20;;
11422;SDS011;5768;51.476;7.210;2023-05-07T16:43:20;3.15;;;2.85;;
11422;SDS011;5768;51.476;7.210;2023-05-07T16:48:25;3.22;;;2.97;;
11422;SDS011;5768;51.476;7.210;2023-05-07T16:53:28;2.90;;;2.70;;
11422;SDS011;5768;51.476;7.210;2023-05-07T16:58:31;2.90;;;2.70;;
11422;SDS011;5768;51.476;7.210;2023-05-07T17:03:33;2.78;;;2.58;;
11422;SDS011;5768;51.476;7.210;2023-05-07T17:08:37;3.00;;;2.70;;
11422;SDS011;5768;51.476;7.210;2023-05-07T17:13:39;2.60;;;2.40;;
11422;SDS011;5768;51.476;7.210;2023-05-07T17:18:41;2.53;;;2.33;;
11422;SDS011;5768;51.476;7.210;2023-05-07T17:23:45;3.55;;;2.60;;
11422;SDS011;5768;51.476;7.210;2023-05-07T17:28:47;3.45;;;3.15;;
11422;SDS011;5768;51.476;7.210;2023-05-07T17:33:49;4.40;;;3.88;;
11422;SDS011;5768;51.476;7.210;2023-05-07T17:38:57;3.78;;;3.40;;
11422;SDS011;5768;51.476;7.210;2023-05-07T17:43:59;6.15;;;3.65;;
11422;SDS011;5768;51.476;7.210;2023-05-07T17:49:01;3.78;;;3.40;;
11422;SDS011;5768;51.476;7.210;2023-05-07T17:54:05;3.75;;;3.42;;
11422;SDS011;5768;51.476;7.210;2023-05-07T17:59:07;3.45;;;3.13;;
11422;SDS011;5768;51.476;7.210;2023-05-07T18:04:10;3.55;;;3.25;;
11422;SDS011;5768;51.476;7.210;2023-05-07T18:09:14;3.30;;;3.00;;
11422;SDS011;5768;51.476;7.210;2023-05-07T18:14:16;3.80;;;3.40;;
11422;SDS011;5768;51.476;7.210;2023-05-07T18:19:23;3.40;;;3.13;;
11422;SDS011;5768;51.476;7.210;2023-05-07T18:24:27;3.85;;;3.55;;
11422;SDS011;5768;51.476;7.210;2023-05-07T18:29:29;4.00;;;3.58;;
11422;SDS011;5768;51.476;7.210;2023-05-07T18:34:32;3.67;;;3.22;;
11422;SDS011;5768;51.476;7.210;2023-05-07T18:39:36;3.85;;;3.00;;
11422;SDS011;5768;51.476;7.210;2023-05-07T18:44:38;3.90;;;3.50;;
11422;SDS011;5768;51.476;7.210;2023-05-07T18:49:41;4.47;;;3.05;;
11422;SDS011;5768;51.476;7.210;2023-05-07T18:54:44;6.00;;;3.50;;
11422;SDS011;5768;51.476;7.210;2023-05-07T18:59:46;4.88;;;4.38;;
11422;SDS011;5768;51.476;7.210;2023-05-07T19:04:49;4.75;;;4.35;;
11422;SDS011;5768;51.476;7.210;2023-05-07T19:09:52;3.97;;;3.67;;
11422;SDS011;5768;51.476;7.210;2023-05-07T19:14:54;4.35;;;3.40;;
11422;SDS011;5768;51.476;7.210;2023-05-07T19:19:57;3.58;;;3.20;;
11422;SDS011;5768;51.476;7.210;2023-05-07T19:25:00;5.07;;;4.53;;
11422;SDS011;5768;51.476;7.210;2023-05-07T19:30:03;6.47;;;5.88;;
11422;SDS011;5768;51.476;7.210;2023-05-07T19:35:08;4.70;;;4.30;;
11422;SDS011;5768;51.476;7.210;2023-05-07T19:40:13;4.20;;;3.80;;
11422;SDS011;5768;51.476;7.210;2023-05-07T19:45:15;4.00;;;3.60;;
11422;SDS011;5768;51.476;7.210;2023-05-07T19:50:18;5.40;;;4.90;;
11422;SDS011;5768;51.476;7.210;2023-05-07T19:55:22;6.97;;;4.68;;
11422;SDS011;5768;51.476;7.210;2023-05-07T20:00:24;6.55;;;5.60;;
11422;SDS011;5768;51.476;7.210;2023-05-07T20:05:31;7.10;;;6.40;;
11422;SDS011;5768;51.476;7.210;2023-05-07T20:10:34;7.75;;;6.85;;
11422;SDS011;5768;51.476;7.210;2023-05-07T20:15:37;11.05;;;9.48;;
11422;SDS011;5768;51.476;7.210;2023-05-07T20:20:39;8.70;;;7.85;;
11422;SDS011;5768;51.476;7.210;2023-05-07T20:25:45;8.98;;;8.18;;
11422;SDS011;5768;51.476;7.210;2023-05-07T20:30:49;9.52;;;8.63;;
11422;SDS011;5768;51.476;7.210;2023-05-07T20:35:51;9.32;;;8.52;;
11422;SDS011;5768;51.476;7.210;2023-05-07T20:40:55;9.60;;;8.80;;
11422;SDS011;5768;51.476;7.210;2023-05-07T20:45:58;10.15;;;9.25;;
11422;SDS011;5768;51.476;7.210;2023-05-07T20:51:01;10.45;;;9.43;;
11422;SDS011;5768;51.476;7.210;2023-05-07T20:56:05;9.90;;;9.00;;
11422;SDS011;5768;51.476;7.210;2023-05-07T21:01:07;11.82;;;10.45;;
11422;SDS011;5768;51.476;7.210;2023-05-07T21:06:10;10.63;;;9.75;;
11422;SDS011;5768;51.476;7.210;2023-05-07T21:11:13;10.20;;;9.40;;
11422;SDS011;5768;51.476;7.210;2023-05-07T21:16:16;12.32;;;11.27;;
11422;SDS011;5768;51.476;7.210;2023-05-07T21:21:18;12.82;;;11.60;;
11422;SDS011;5768;51.476;7.210;2023-05-07T21:26:21;13.05;;;11.88;;
11422;SDS011;5768;51.476;7.210;2023-05-07T21:31:25;12.02;;;11.00;;
11422;SDS011;5768;51.476;7.210;2023-05-07T21:36:27;13.30;;;12.10;;
11422;SDS011;5768;51.476;7.210;2023-05-07T21:41:32;12.82;;;11.63;;
11422;SDS011;5768;51.476;7.210;2023-05-07T21:46:34;13.05;;;11.90;;
11422;SDS011;5768;51.476;7.210;2023-05-07T21:51:36;13.10;;;11.80;;
11422;SDS011;5768;51.476;7.210;2023-05-07T21:56:40;13.63;;;12.48;;
11422;SDS011;5768;51.476;7.210;2023-05-07T22:01:42;13.77;;;12.48;;
11422;SDS011;5768;51.476;7.210;2023-05-07T22:06:45;13.38;;;12.18;;
11422;SDS011;5768;51.476;7.210;2023-05-07T22:11:49;13.70;;;12.50;;
11422;SDS011;5768;51.476;7.210;2023-05-07T22:16:51;14.48;;;13.18;;
11422;SDS011;5768;51.476;7.210;2023-05-07T22:21:53;14.38;;;13.23;;
11422;SDS011;5768;51.476;7.210;2023-05-07T22:26:57;14.70;;;13.50;;
11422;SDS011;5768;51.476;7.210;2023-05-07T22:31:59;14.65;;;13.45;;
11422;SDS011;5768;51.476;7.210;2023-05-07T22:37:01;15.73;;;14.32;;
11422;SDS011;5768;51.476;7.210;2023-05-07T22:42:05;15.05;;;13.65;;
11422;SDS011;5768;51.476;7.210;2023-05-07T22:47:07;16.13;;;14.57;;
11422;SDS011;5768;51.476;7.210;2023-05-07T22:52:09;15.75;;;14.40;;
11422;SDS011;5768;51.476;7.210;2023-05-07T22:57:13;15.68;;;14.38;;
11422;SDS011;5768;51.476;7.210;2023-05-07T23:02:15;14.80;;;13.43;;
11422;SDS011;5768;51.476;7.210;2023-05-07T23:07:17;15.90;;;14.40;;
11422;SDS011;5768;51.476;7.210;2023-05-07T23:12:21;15.77;;;14.48;;
11422;SDS011;5768;51.476;7.210;2023-05-07T23:17:23;16.55;;;14.93;;
11422;SDS011;5768;51.476;7.210;2023-05-07T23:22:25;16.90;;;15.40;;
11422;SDS011;5768;51.476;7.210;2023-05-07T23:27:29;16.08;;;14.68;;
11422;SDS011;5768;51.476;7.210;2023-05-07T23:32:31;16.58;;;15.07;;
11422;SDS011;5768;51.476;7.210;2023-05-07T23:37:34;16.88;;;15.48;;
11422;SDS011;5768;51.476;7.210;2023-05-07T23:42:38;16.58;;;15.02;;
11422;SDS011;5768;51.476;7.210;2023-05-07T23:47:40;16.42;;;14.93;;
11422;SDS011;5768;51.476;7.210;2023-05-07T23:52:42;16.48;;;15.00;;
11422;SDS011;5768;51.476;7.210;2023-05-07T23:57:45;16.15;;;14.73;;
